Latest Weather Observations for Groote Eylandt Airport

IDD60801

Issued at 7:05 pm CST Wednesday 22 October 2014 (issued every 30 minutes, with the page automatically refreshed every 10 minutes)

About weather observations | Map of weather stations | Latest weather observations for NT | Other Formats
Station Details ID: 014518 Name: GROOTE EYLANDT AIRPORT Lat: -13.97 Lon: 136.46 Height: 13.7 m
Data from the previous 72 hours. | See also: Recent months at Groote Eylandt Airport
Date/Time
CST
Temp
°C
App
Temp
°C
Dew
Point
Rel
Hum
%
Delta-T
°C
Wind Press
QNH
hPa
Press
MSL
hPa
Rain
since 9 am
mm
Dir
 
Spd
km/h
Gust
km/h
Spd
kts
Gust
kts
22/07:00pm 28.0 29.9 21.3 67 4.5 ENE 13 20 7 11 1013.2 1013.1 0.0
22/06:30pm 28.9 30.6 20.9 62 5.3 E 13 17 7 9 1012.8 1012.7 0.0
22/06:00pm 29.9 31.4 20.5 57 6.2 ESE 13 20 7 11 1012.5 1012.4 0.0
22/05:30pm 30.8 31.2 19.8 52 7.2 E 17 22 9 12 1012.1 1012.0 0.0
22/05:00pm 31.6 32.1 19.2 47 8.1 ENE 15 24 8 13 1011.9 1011.8 0.0
22/04:30pm 32.2 31.3 17.7 42 9.3 ENE 19 26 10 14 1011.8 1011.7 0.0
22/04:00pm 32.3 30.8 15.3 35 10.5 ENE 17 24 9 13 1011.9 1011.8 0.0
22/03:30pm 32.6 31.2 15.6 36 10.6 E 17 24 9 13 1011.9 1011.8 0.0
22/03:00pm 33.8 33.3 13.8 30 12.2 ESE 9 17 5 9 1012.0 1011.9 0.0
22/02:30pm 33.0 31.9 13.1 30 12.0 SE 11 20 6 11 1012.1 1012.0 0.0
22/02:00pm 33.3 31.5 14.4 32 11.6 E 17 28 9 15 1012.3 1012.2 0.0
22/01:30pm 33.7 31.8 15.2 33 11.5 E 19 32 10 17 1012.6 1012.5 0.0
22/01:00pm 33.2 31.9 13.8 31 11.8 SE 13 26 7 14 1013.2 1013.1 0.0
22/12:30pm 31.3 32.0 19.6 49 7.7 W 15 26 8 14 1013.7 1013.6 0.0
22/12:00pm 33.0 34.2 19.1 43 9.1 ESE 11 20 6 11 1014.2 1014.1 0.0
22/11:30am 33.1 32.4 14.2 32 11.5 ESE 11 24 6 13 1014.7 1014.6 0.0
22/11:00am 33.8 32.4 12.2 27 12.9 ESE 11 24 6 13 1014.7 1014.6 0.0
22/10:30am 33.7 31.4 10.3 24 13.5 ENE 13 24 7 13 1014.9 1014.8 0.0
22/10:00am 33.1 28.7 10.4 25 13.1 E 24 39 13 21 1015.2 1015.1 0.0
22/09:30am 32.7 31.1 12.9 30 11.8 E 13 20 7 11 1015.3 1015.2 0.0
22/09:00am 30.4 31.9 17.5 46 8.2 NE 6 11 3 6 1015.3 1015.2 0.0
22/08:30am 28.7 31.9 20.4 60 5.5 NE 4 7 2 4 1015.1 1015.0 0.0
22/08:00am 25.9 30.0 22.2 80 2.5 NE 4 7 2 4 1014.9 1014.8 0.0
22/07:30am 23.3 26.7 21.7 91 1.1 E 6 7 3 4 1014.7 1014.6 0.0
22/07:23am 22.1 25.2 21.1 94 0.7 E 6 7 3 4 1014.5 1014.4 0.0
22/07:17am 21.2 24.9 20.7 97 0.3 E 2 6 1 3 1014.5 1014.4 0.0
22/07:00am 19.8 22.1 19.8 100 0.0 E 7 9 4 5 1014.2 1014.1 0.0
22/06:30am 18.7 21.8 18.7 100 0.0 CALM 0 0 0 0 1013.9 1013.8 0.0
22/06:00am 18.6 21.6 18.4 99 0.1 E 0 0 0 0 1013.7 1013.6 0.0
22/05:55am 18.5 21.4 18.2 98 0.2 CALM 0 0 0 0 1013.7 1013.6 0.0
22/05:54am 18.5 21.4 18.2 98 0.2 CALM 0 0 0 0 1013.7 1013.6 0.0
22/05:30am 18.8 20.9 18.1 96 0.4 E 4 6 2 3 1013.4 1013.3 0.0
22/05:00am 19.5 22.7 18.8 96 0.4 CALM 0 0 0 0 1013.3 1013.2 0.0
22/04:30am 20.1 23.5 19.4 96 0.4 CALM 0 0 0 0 1013.1 1013.0 0.0
22/04:00am 20.9 24.7 20.2 96 0.4 CALM 0 0 0 0 1013.0 1012.9 0.0
22/03:30am 21.1 25.0 20.3 95 0.5 CALM 0 0 0 0 1013.0 1012.9 0.0
22/03:00am 21.5 25.6 20.7 95 0.5 CALM 0 0 0 0 1013.1 1013.0 0.0
22/02:30am 22.0 26.0 20.6 92 0.9 CALM 0 6 0 3 1013.2 1013.1 0.0
22/02:00am 22.7 26.5 21.0 90 1.1 SSE 2 6 1 3 1013.4 1013.3 0.0
22/01:30am 23.1 26.2 21.5 91 1.1 SSW 7 11 4 6 1013.7 1013.6 0.0
22/01:00am 23.6 26.4 21.5 88 1.4 ESE 9 15 5 8 1013.8 1013.7 0.0
22/12:30am 24.0 26.7 22.1 89 1.3 E 11 15 6 8 1014.0 1013.9 0.0
22/12:00am 24.3 27.4 22.2 88 1.4 E 9 11 5 6 1014.4 1014.3 0.0
 
Date/Time
CST
Temp
°C
App
Temp
°C
Dew
Point
Rel
Hum
%
Delta-T
°C
Wind Press
QNH
hPa
Press
MSL
hPa
Rain
since 9 am
mm
Dir
 
Spd
km/h
Gust
km/h
Spd
kts
Gust
kts
21/11:30pm 24.0 26.9 21.7 87 1.5 E 9 11 5 6 1014.7 1014.6 0.0
21/11:00pm 24.5 27.5 22.0 86 1.7 E 9 11 5 6 1014.8 1014.7 0.0
21/10:30pm 24.8 28.1 21.9 84 1.9 ENE 7 9 4 5 1015.0 1014.9 0.0
21/10:00pm 25.3 28.7 22.0 82 2.2 E 7 9 4 5 1015.2 1015.1 0.0
21/09:30pm 25.5 28.5 22.0 81 2.3 ESE 9 13 5 7 1015.0 1014.9 0.0
21/09:00pm 25.5 28.3 21.6 79 2.6 E 9 11 5 6 1014.8 1014.7 0.0
21/08:30pm 25.8 28.8 21.2 76 3.0 ESE 7 9 4 5 1014.7 1014.6 0.0
21/08:00pm 26.5 29.2 21.3 73 3.4 ESE 9 13 5 7 1014.5 1014.4 0.0
21/07:30pm 27.0 29.7 21.3 71 3.8 ENE 9 13 5 7 1014.3 1014.2 0.0
21/07:00pm 27.6 29.5 21.4 69 4.1 E 13 19 7 10 1014.1 1014.0 0.0
21/06:30pm 28.3 29.8 21.3 65 4.7 ENE 15 20 8 11 1013.9 1013.8 0.0
21/06:00pm 29.4 31.0 20.8 60 5.7 ENE 13 20 7 11 1013.5 1013.4 0.0
21/05:30pm 30.8 32.6 20.4 54 6.9 NW 11 17 6 9 1013.1 1013.0 0.0
21/05:00pm 31.3 32.5 19.9 50 7.5 WNW 13 19 7 10 1013.0 1012.9 0.0
21/04:30pm 31.4 33.0 20.0 50 7.5 W 11 17 6 9 1012.8 1012.7 0.0
21/04:00pm 31.5 32.1 19.5 49 7.9 W 15 20 8 11 1012.8 1012.7 0.0
21/03:30pm 31.9 32.6 18.8 45 8.5 W 13 17 7 9 1012.8 1012.7 0.0
21/03:00pm 30.8 31.7 19.2 50 7.6 WSW 13 19 7 10 1013.1 1013.0 0.0
21/02:30pm 30.8 31.5 18.8 48 7.8 SW 13 20 7 11 1013.2 1013.1 0.0
21/02:00pm 31.6 31.2 18.9 47 8.3 W 19 26 10 14 1013.5 1013.4 0.0
21/01:30pm 31.5 32.7 19.8 49 7.7 WSW 13 26 7 14 1013.6 1013.5 0.0
21/01:00pm 31.0 31.0 18.0 45 8.3 WSW 15 28 8 15 1013.9 1013.8 0.0
21/12:30pm 31.2 32.1 19.2 48 7.8 WSW 13 24 7 13 1014.5 1014.4 0.0
21/12:00pm 30.3 29.8 17.0 44 8.4 SW 15 26 8 14 1015.1 1015.0 0.0
21/11:30am 31.1 31.8 20.4 53 7.1 WSW 17 26 9 14 1015.3 1015.2 0.0
21/11:00am 31.0 31.8 20.6 54 6.9 W 17 22 9 12 1015.4 1015.3 0.0
21/10:30am 32.6 32.5 13.8 32 11.4 ENE 7 15 4 8 1015.4 1015.3 0.0
21/10:00am 32.5 31.5 15.5 36 10.6 ENE 15 24 8 13 1015.8 1015.7 0.0
21/09:30am 31.0 29.6 16.6 42 9.0 ENE 19 28 10 15 1016.0 1015.9 0.0
21/09:00am 30.4 29.2 16.0 41 8.9 NE 17 28 9 15 1016.1 1016.0 0.0
21/08:30am 28.8 28.7 17.0 49 7.4 NNE 13 19 7 10 1016.0 1015.9 0.0
21/08:00am 26.5 28.6 18.1 60 5.3 ENE 4 7 2 4 1015.9 1015.8 0.0
21/07:30am 23.4 24.9 17.6 70 3.6 E 6 9 3 5 1015.6 1015.5 0.0
21/07:00am 19.9 21.1 16.9 83 1.8 E 6 7 3 4 1015.1 1015.0 0.0
21/06:30am 18.1 19.3 16.8 92 0.8 E 6 7 3 4 1014.7 1014.6 0.0
21/06:00am 17.9 19.2 17.1 95 0.5 ENE 6 7 3 4 1014.5 1014.4 0.0
21/05:30am 17.5 19.1 16.9 96 0.4 SE 4 7 2 4 1014.1 1014.0 0.0
21/05:00am 17.8 19.8 17.0 95 0.5 ENE 2 9 1 5 1013.7 1013.6 0.0
21/04:30am 17.9 19.1 16.9 94 0.6 E 6 7 3 4 1013.5 1013.4 0.0
21/04:00am 17.9 20.3 17.1 95 0.5 CALM 0 0 0 0 1013.1 1013.0 0.0
21/03:30am 18.1 19.3 16.9 93 0.7 E 6 7 3 4 1012.8 1012.7 0.0
21/03:00am 18.5 19.9 17.3 93 0.7 E 6 7 3 4 1012.8 1012.7 0.0
21/02:30am 19.3 20.9 18.3 94 0.6 E 7 9 4 5 1013.0 1012.9 0.0
21/02:00am 19.2 22.0 17.9 92 0.8 CALM 0 0 0 0 1013.3 1013.2 0.0
21/01:30am 20.6 23.8 19.8 95 0.5 NNE 2 6 1 3 1013.6 1013.5 0.0
21/01:00am 20.4 22.5 18.9 91 0.9 ESE 6 7 3 4 1014.0 1013.9 0.0
21/12:30am 21.1 23.4 19.4 90 1.1 E 6 7 3 4 1014.4 1014.3 0.0
21/12:00am 22.2 25.7 19.6 85 1.7 CALM 0 0 0 0 1014.6 1014.5 0.0
 
Date/Time
CST
Temp
°C
App
Temp
°C
Dew
Point
Rel
Hum
%
Delta-T
°C
Wind Press
QNH
hPa
Press
MSL
hPa
Rain
since 9 am
mm
Dir
 
Spd
km/h
Gust
km/h
Spd
kts
Gust
kts
20/11:30pm 23.0 25.5 20.3 85 1.7 ENE 7 13 4 7 1015.0 1014.9 0.0
20/11:00pm 23.1 26.9 20.1 83 1.9 CALM 0 0 0 0 1015.5 1015.4 0.0
20/10:30pm 23.4 27.2 20.1 82 2.1 CALM 0 0 0 0 1015.5 1015.4 0.0
20/10:00pm 24.3 27.0 20.6 80 2.4 E 7 9 4 5 1015.4 1015.3 0.0
20/09:30pm 24.5 27.3 20.8 80 2.4 ESE 7 11 4 6 1015.3 1015.2 0.0
20/09:00pm 24.7 27.4 20.6 78 2.7 ESE 7 11 4 6 1015.0 1014.9 0.0
20/08:30pm 25.0 27.6 20.5 76 2.9 ESE 7 9 4 5 1014.6 1014.5 0.0
20/08:00pm 25.5 28.1 20.5 74 3.3 ESE 7 9 4 5 1014.2 1014.1 0.0
20/07:30pm 26.3 28.6 20.6 71 3.7 ESE 9 13 5 7 1014.0 1013.9 0.0
20/07:00pm 27.0 28.6 20.8 69 4.1 E 13 17 7 9 1013.5 1013.4 0.0
20/06:30pm 27.7 28.4 20.5 65 4.7 E 17 22 9 12 1013.0 1012.9 0.0
20/06:00pm 28.8 29.5 20.5 61 5.5 E 17 20 9 11 1012.6 1012.5 0.0
20/05:30pm 29.5 30.0 20.1 57 6.2 E 17 20 9 11 1012.2 1012.1 0.0
20/05:00pm 29.9 30.3 19.9 55 6.6 ENE 17 24 9 13 1012.0 1011.9 0.0
20/04:30pm 30.3 31.0 19.6 52 7.0 ENE 15 24 8 13 1012.0 1011.9 0.0
20/04:00pm 30.4 31.4 20.3 54 6.7 E 15 26 8 14 1012.1 1012.0 0.0
20/03:30pm 30.8 31.1 20.4 54 6.9 E 19 26 10 14 1012.2 1012.1 0.0
20/03:00pm 31.3 30.9 19.0 48 8.0 E 19 30 10 16 1012.2 1012.1 0.0
20/02:30pm 32.2 32.5 19.5 47 8.4 E 17 26 9 14 1012.3 1012.2 0.0
20/02:00pm 31.2 31.2 18.9 48 8.0 ESE 17 24 9 13 1012.9 1012.8 0.0
20/01:30pm 31.5 31.1 18.8 46 8.3 ESE 19 24 10 13 1013.5 1013.4 0.0
20/01:00pm 31.6 32.2 18.6 46 8.4 ENE 13 28 7 15 1014.0 1013.9 0.0
20/12:30pm 31.6 32.5 19.2 47 8.1 E 13 22 7 12 1014.5 1014.4 0.0
20/12:00pm 30.9 31.4 18.3 47 8.1 SSE 13 20 7 11 1014.8 1014.7 0.0
20/11:30am 32.1 31.9 19.7 48 8.2 ENE 20 30 11 16 1015.0 1014.9 0.0
20/11:00am 31.8 30.9 17.7 43 9.0 NE 19 26 10 14 1015.0 1014.9 0.0
20/10:30am 32.0 31.6 17.1 41 9.5 E 15 30 8 16 1015.0 1014.9 0.0
20/10:00am 30.8 31.0 18.5 47 7.9 E 15 20 8 11 1015.7 1015.6 0.0
20/09:30am 29.4 29.1 19.1 54 6.7 NE 19 24 10 13 1016.0 1015.9 0.0
20/09:00am 28.8 29.5 19.7 58 5.9 ENE 15 20 8 11 1015.9 1015.8 0.0
20/08:30am 27.3 28.1 19.9 64 4.8 NE 15 22 8 12 1015.7 1015.6 0.0
20/08:00am 25.5 28.8 21.8 80 2.5 NE 7 13 4 7 1015.6 1015.5 0.0
20/07:30am 22.1 25.8 20.0 88 1.3 CALM 0 0 0 0 1015.4 1015.3 0.0
20/07:00am 20.1 22.9 18.9 93 0.8 ESE 2 6 1 3 1015.0 1014.9 0.0
20/06:30am 18.4 21.0 17.4 94 0.6 CALM 0 0 0 0 1014.7 1014.6 0.0
20/06:00am 17.9 20.3 17.1 95 0.5 CALM 0 0 0 0 1014.2 1014.1 0.0
20/05:30am 17.9 19.8 16.6 92 0.8 ESE 2 6 1 3 1013.9 1013.8 0.0
20/05:00am 19.5 21.1 18.3 93 0.7 NE 7 9 4 5 1013.6 1013.5 0.0
20/04:30am 17.7 19.9 16.4 92 0.8 CALM 0 0 0 0 1012.9 1012.8 0.0
20/04:00am 17.9 20.3 16.9 94 0.6 CALM 0 0 0 0 1012.6 1012.5 0.0
20/03:30am 17.8 20.2 17.0 95 0.5 CALM 0 0 0 0 1012.5 1012.4 0.0
20/03:00am 17.9 20.4 17.3 96 0.4 CALM 0 0 0 0 1012.6 1012.5 0.0
20/02:30am 18.2 20.6 17.0 93 0.7 CALM 0 0 0 0 1012.9 1012.8 0.0
20/02:00am 18.6 21.2 17.6 94 0.6 CALM 0 0 0 0 1013.2 1013.1 0.0
20/01:30am 19.1 22.0 18.1 94 0.6 CALM 0 0 0 0 1013.6 1013.5 0.0
20/01:00am 19.5 22.5 18.5 94 0.6 CALM 0 0 0 0 1014.0 1013.9 0.0
20/12:30am 20.1 23.1 18.4 90 1.1 CALM 0 0 0 0 1014.5 1014.4 0.0
20/12:00am 20.8 24.0 18.9 89 1.2 CALM 0 0 0 0 1015.0 1014.9 0.0
 
Date/Time
CST
Temp
°C
App
Temp
°C
Dew
Point
Rel
Hum
%
Delta-T
°C
Wind Press
QNH
hPa
Press
MSL
hPa
Rain
since 9 am
mm
Dir
 
Spd
km/h
Gust
km/h
Spd
kts
Gust
kts
19/11:30pm 21.3 24.6 19.0 87 1.4 CALM 0 0 0 0 1015.3 1015.2 0.0
19/11:00pm 22.4 25.9 19.6 84 1.8 CALM 0 4 0 2 1015.6 1015.5 0.0
19/10:30pm 22.9 25.5 20.1 84 1.8 ESE 6 6 3 3 1015.8 1015.7 0.0
19/10:00pm 23.2 25.8 20.0 82 2.1 ESE 6 7 3 4 1015.7 1015.6 0.0
19/09:30pm 23.8 26.3 20.3 81 2.3 SE 7 9 4 5 1015.4 1015.3 0.0
19/09:00pm 24.2 26.9 20.3 79 2.5 ESE 6 9 3 5 1015.1 1015.0 0.0
19/08:30pm 25.1 27.7 20.4 75 3.1 ESE 7 9 4 5 1014.9 1014.8 0.0
19/08:00pm 25.6 27.9 20.6 74 3.3 ESE 9 15 5 8 1014.4 1014.3 0.0
19/07:30pm 26.2 28.1 20.5 71 3.7 E 11 15 6 8 1014.1 1014.0 0.0

Other Formats:

Comma delimited format used in spreadsheet applications
http://www.bom.gov.au/fwo/IDD60801/IDD60801.94153.axf

JavaScript Object Notation format (JSON) in row-major order
http://www.bom.gov.au/fwo/IDD60801/IDD60801.94153.json